KOAJ/OAJ METAR and TAF weather

Enter ICAO airport designator
Station Type Date Time Source
KOAJ METAR 2021/10/20 06:56 UTC NOAA

KOAJ 200656Z AUTO 24003KT 10SM CLR 09/08 A3021 RMK AO2 SLP233 T00940083


Station Type Date Time Source
KOAJ Decoded METAR 2021/10/20 06:56 UTC NOAA

Jacksonville, Albert J Ellis Airport, NC, United States (KOAJ) 34-50N 077-37W
Oct 20, 2021 - 02:56 AM EDT / 2021.10.20 0656 UTC
Wind: from the WSW (240 degrees) at 3 MPH (3 KT):0
Visibility: 10 mile(s):0
Sky conditions: clear
Temperature: 48.9 F (9.4 C)
Dew Point: 46.9 F (8.3 C)
Relative Humidity: 92%
Pressure (altimeter): 30.21 in. Hg (1023 hPa)
ob: KOAJ 200656Z AUTO 24003KT 10SM CLR 09/08 A3021 RMK AO2 SLP233 T00940083
cycle: 7

Station Type Date Time Source
KOAJ TAF 2021/10/20 06:24 UTC NOAA

TAF KOAJ 200522Z 2006/2106 VRB03KT P6SM FEW250
AMD LTD TO CLD VIS AND WIND

Example: see airport list